Convent, Louisiana
Current Conditions -  °F | °C
As of 3:35 AM on Monday 24 Nov 2014 (Local Time) from KL38 Reporting Station
Haze Haze  
Wind Chill: 65°   Ceiling: 300
Heat Index: 65°   Visibility: 2.5mi
Dew Point: 65°   Wind: 0mph
Humidity: 100%   Direction: NA
Pressure: 29.76"   Gusts: NA
Location:  30.02°N, 90.83°W
Report Text: KL38 240935Z AUTO 00000KT 2 1/2SM BR OVC003 19/19 A2976 RMK AO2 T01850185
Loading
Personal Weather Stations






























Interactive Weather Map New forecast layout! Learn more

10-Day Weather Forecast

Advertisements
Track Severe Weather on mobile